Terminal Aerodrome Forecast
Issued by NWS Louisville, KY

Home | Current Version | Previous Version | Text Only | Print | Product List | Glossary On
Versions: 1 2 3 4 5 6 7 8 9 10 11 12 13 14 15 16
000
FTUS43 KLMK 272323
TAFLEX
TAF
KLEX 272323Z 2800/2824 VRB03KT P6SM SCT250
     FM280800 VRB03KT 6SM BR FEW250
      TEMPO 2809/2813 4SM BR
     FM281500 04004KT P6SM FEW040 SCT250 PROB30 2817/2823 VRB15G25KT
      3SM TSRA BKN040CB=

USA.gov is the U.S. government's official web portal to all federal, state and local government web resources and services.